createdAt,value
2023-03-20T00:02:53.103Z,83.44
2023-03-20T00:07:53.096Z,82.73
2023-03-20T00:12:52.869Z,81.77
2023-03-20T00:17:52.902Z,82.12
2023-03-20T00:22:52.826Z,81.51
2023-03-20T00:27:52.706Z,83.83
2023-03-20T00:32:52.678Z,84.14
2023-03-20T00:37:55.570Z,84.17
2023-03-20T00:42:52.491Z,85.64
2023-03-20T00:47:52.559Z,84.11
2023-03-20T00:52:52.468Z,83.60
2023-03-20T00:57:53.195Z,84.22
2023-03-20T01:02:52.357Z,83.97
2023-03-20T01:07:52.217Z,82.75
2023-03-20T01:12:52.084Z,83.60
2023-03-20T01:17:52.062Z,83.15
2023-03-20T01:22:52.896Z,82.60
2023-03-20T01:27:51.991Z,81.24
2023-03-20T01:32:51.924Z,82.50
2023-03-20T01:37:54.797Z,83.36
2023-03-20T01:42:51.710Z,83.36
2023-03-20T01:47:51.818Z,82.09
2023-03-20T01:52:51.591Z,81.44
2023-03-20T01:57:51.567Z,80.52
2023-03-20T02:02:51.455Z,81.54
2023-03-20T02:07:51.469Z,82.05
2023-03-20T02:12:51.295Z,81.79
2023-03-20T02:17:51.379Z,83.46
2023-03-20T02:22:51.178Z,84.07
2023-03-20T02:27:51.183Z,83.91
2023-03-20T02:32:51.086Z,84.38
2023-03-20T02:37:54.153Z,83.22
2023-03-20T02:42:50.933Z,84.28
2023-03-20T02:47:50.861Z,81.74
2023-03-20T02:52:50.753Z,85.20
2023-03-20T02:57:50.952Z,84.07
2023-03-20T03:02:50.786Z,83.56
2023-03-20T03:07:50.662Z,83.97
2023-03-20T03:12:50.557Z,83.36
2023-03-20T03:17:58.299Z,83.66
2023-03-20T03:22:57.447Z,83.36
2023-03-20T03:27:50.510Z,84.22
2023-03-20T03:32:50.387Z,84.28
2023-03-20T03:37:53.317Z,83.15
2023-03-20T03:42:50.249Z,85.38
2023-03-20T03:47:50.177Z,83.01
2023-03-20T03:52:49.987Z,83.19
2023-03-20T03:57:49.976Z,84.28
2023-03-20T04:02:49.884Z,84.01
2023-03-20T04:07:49.864Z,84.42
2023-03-20T04:12:49.743Z,83.39
2023-03-20T04:17:49.901Z,83.36
2023-03-20T04:22:49.634Z,83.66
2023-03-20T04:27:49.572Z,82.60
2023-03-20T04:32:49.501Z,83.25
2023-03-20T04:37:52.591Z,83.32
2023-03-20T04:42:49.359Z,84.56
2023-03-20T04:47:49.339Z,83.46
2023-03-20T04:52:49.214Z,83.05
2023-03-20T04:57:49.296Z,83.81
2023-03-20T05:02:49.099Z,84.93
2023-03-20T05:07:49.047Z,84.42
2023-03-20T05:12:49.024Z,83.91
2023-03-20T05:17:51.560Z,84.63
2023-03-20T05:22:48.948Z,85.96
2023-03-20T05:27:49.363Z,83.56
2023-03-20T05:32:48.694Z,84.58
2023-03-20T05:37:51.772Z,83.22
2023-03-20T05:42:48.560Z,84.99
2023-03-20T05:47:48.543Z,83.73
2023-03-20T05:52:48.639Z,83.38
2023-03-20T05:57:48.377Z,82.46
2023-03-20T06:02:48.421Z,82.91
2023-03-20T06:07:48.395Z,83.14
2023-03-20T06:12:48.134Z,82.77
2023-03-20T06:17:48.155Z,81.71
2023-03-20T06:22:48.051Z,80.82
2023-03-20T06:27:48.077Z,80.10
2023-03-20T06:32:47.935Z,78.84
2023-03-20T06:37:51.458Z,78.50
2023-03-20T06:42:47.757Z,79.25
2023-03-20T06:47:47.846Z,78.80
2023-03-20T06:52:47.642Z,78.77
2023-03-20T06:57:47.625Z,77.71
2023-03-20T07:02:47.520Z,77.06
2023-03-20T07:07:48.036Z,76.01
2023-03-20T07:12:47.360Z,76.42
2023-03-20T07:17:47.536Z,75.46
2023-03-20T07:22:47.215Z,75.46
2023-03-20T07:27:47.352Z,75.33
2023-03-20T07:32:47.134Z,75.02
2023-03-20T07:37:50.109Z,75.33
2023-03-20T07:42:47.021Z,75.57
2023-03-20T07:47:47.036Z,74.38
2023-03-20T07:52:46.961Z,73.70
2023-03-20T07:57:46.842Z,71.94
2023-03-20T08:02:46.800Z,71.57
2023-03-20T08:07:46.723Z,72.72
2023-03-20T08:12:46.571Z,70.93
2023-03-20T08:17:46.622Z,70.29
2023-03-20T08:22:46.660Z,68.84
2023-03-20T08:27:46.516Z,69.61
2023-03-20T08:32:46.354Z,68.50
2023-03-20T08:37:49.296Z,68.10
2023-03-20T08:42:46.295Z,68.53
2023-03-20T08:47:46.195Z,69.34
2023-03-20T08:52:46.024Z,68.90
2023-03-20T08:57:46.077Z,68.26
2023-03-20T09:02:46.035Z,67.25
2023-03-20T09:07:45.932Z,66.18
2023-03-20T09:12:45.926Z,66.18
2023-03-20T09:17:45.821Z,66.27
2023-03-20T09:22:45.639Z,69.71
2023-03-20T09:27:45.796Z,70.86
2023-03-20T09:32:45.562Z,69.37
2023-03-20T09:37:48.680Z,69.17
2023-03-20T09:42:45.438Z,69.00
2023-03-20T09:47:45.529Z,70.45
2023-03-20T09:52:45.257Z,70.42
2023-03-20T09:57:45.241Z,67.82
2023-03-20T10:02:45.341Z,68.43
2023-03-20T10:07:45.224Z,69.64
2023-03-20T10:12:52.250Z,83.12
2023-03-20T10:17:45.018Z,85.31
2023-03-20T10:22:45.009Z,85.27
2023-03-20T10:27:45.104Z,84.48
2023-03-20T10:32:45.553Z,83.08
2023-03-20T10:37:47.775Z,84.05
2023-03-20T10:42:44.773Z,82.73
2023-03-20T10:47:44.630Z,81.92
2023-03-20T10:52:44.601Z,81.21
2023-03-20T11:00:34.860Z,82.33
2023-03-20T11:06:52.034Z,81.93
2023-03-20T11:11:59.914Z,81.09
2023-03-20T11:16:51.910Z,82.04
2023-03-20T11:21:51.895Z,81.21
2023-03-20T11:26:51.689Z,80.77
2023-03-20T11:31:51.698Z,79.55
2023-03-20T11:37:06.401Z,79.13
2023-03-20T11:41:52.740Z,79.13
2023-03-20T11:46:51.459Z,77.03
2023-03-20T11:51:59.281Z,76.15
2023-03-20T11:56:54.400Z,73.63
2023-03-20T12:01:51.592Z,76.27
2023-03-20T12:06:51.172Z,77.05
2023-03-20T12:11:51.213Z,77.72
2023-03-20T12:16:51.106Z,74.92
2023-03-20T12:21:51.636Z,75.02
2023-03-20T12:26:51.001Z,74.68
2023-03-20T12:31:51.031Z,74.68
2023-03-20T12:36:50.788Z,74.21
2023-03-20T12:41:50.891Z,71.00
2023-03-20T12:46:50.720Z,73.39
2023-03-20T12:51:51.394Z,69.71
2023-03-20T12:56:53.574Z,71.06
2023-03-20T13:01:50.684Z,71.40
2023-03-20T13:06:50.522Z,71.20
2023-03-20T13:11:50.397Z,72.34
2023-03-20T13:16:50.378Z,73.93
2023-03-20T13:21:50.205Z,73.02
2023-03-20T13:26:50.359Z,74.68
2023-03-20T13:32:28.165Z,81.86
2023-03-20T13:41:54.899Z,84.01
2023-03-20T13:46:54.786Z,83.57
2023-03-20T13:51:54.631Z,82.10
2023-03-20T13:56:54.521Z,79.36
2023-03-20T14:01:54.531Z,78.87
2023-03-20T14:06:54.344Z,77.68
2023-03-20T14:11:54.468Z,75.69
2023-03-20T14:16:54.242Z,77.55
2023-03-20T14:21:54.272Z,74.64
2023-03-20T14:26:54.166Z,74.57
2023-03-20T14:31:57.801Z,72.92
2023-03-20T14:36:54.098Z,73.12
2023-03-20T14:41:54.039Z,72.34
2023-03-20T14:49:27.517Z,70.25
2023-03-20T14:56:29.967Z,69.81
2023-03-20T15:01:38.017Z,68.26
2023-03-20T15:06:36.623Z,67.69
2023-03-20T15:11:29.576Z,68.94
2023-03-20T15:17:47.436Z,67.05
2023-03-20T15:22:46.854Z,67.99
2023-03-20T15:27:46.863Z,68.70
2023-03-20T15:32:46.877Z,69.14
2023-03-20T15:37:46.808Z,68.36
2023-03-20T15:42:46.680Z,69.07
2023-03-20T15:49:04.178Z,67.62
2023-03-20T15:54:11.528Z,66.58
2023-03-20T15:59:03.950Z,67.22
2023-03-20T16:04:03.947Z,67.14
2023-03-20T16:09:03.793Z,66.47
2023-03-20T16:14:11.086Z,67.11
2023-03-20T16:19:10.866Z,64.79
2023-03-20T16:26:41.979Z,66.00
2023-03-20T16:31:49.424Z,63.54
2023-03-20T16:36:41.607Z,66.40
2023-03-20T16:41:41.685Z,67.11
2023-03-20T16:46:41.571Z,67.44
2023-03-20T16:51:41.478Z,67.68
2023-03-20T16:56:41.386Z,67.78
2023-03-20T17:01:41.327Z,67.20
2023-03-20T17:06:41.295Z,67.10
2023-03-20T17:11:41.339Z,67.54
2023-03-20T17:16:44.256Z,67.67
2023-03-20T17:21:48.571Z,68.01
2023-03-20T17:26:49.015Z,66.55
2023-03-20T17:31:40.963Z,67.53
2023-03-20T17:36:40.916Z,67.83
2023-03-20T17:41:40.751Z,68.07
2023-03-20T17:46:56.536Z,69.12
2023-03-20T17:51:41.913Z,69.26
2023-03-20T17:56:40.554Z,69.53
2023-03-20T18:01:40.532Z,69.73
2023-03-20T18:06:40.575Z,70.07
2023-03-20T18:11:40.433Z,70.68
2023-03-20T18:16:43.468Z,70.04
2023-03-20T18:21:40.274Z,71.63
2023-03-20T18:26:40.277Z,71.39
2023-03-20T18:31:42.727Z,69.76
2023-03-20T18:36:40.172Z,70.95
2023-03-20T18:41:40.071Z,71.50
2023-03-20T18:46:40.012Z,70.38
2023-03-20T18:51:39.875Z,71.67
2023-03-20T18:56:40.000Z,73.06
2023-03-20T19:01:39.827Z,72.08
2023-03-20T19:06:39.824Z,73.77
2023-03-20T19:11:39.626Z,72.41
2023-03-20T19:16:42.659Z,73.23
2023-03-20T19:21:39.525Z,72.62
2023-03-20T19:26:39.509Z,73.30
2023-03-20T19:31:39.496Z,73.94
2023-03-20T19:36:39.475Z,74.79
2023-03-20T19:41:39.243Z,73.30
2023-03-20T19:46:41.507Z,72.34
2023-03-20T19:51:39.094Z,72.99
2023-03-20T19:56:39.239Z,72.69
2023-03-20T20:01:39.070Z,70.58
2023-03-20T20:06:39.941Z,71.56
2023-03-20T20:12:55.932Z,68.88
2023-03-20T20:18:03.391Z,68.75
2023-03-20T20:23:03.234Z,67.57
2023-03-20T20:27:55.949Z,69.12
2023-03-20T20:33:03.162Z,67.86
2023-03-20T20:42:56.667Z,67.86
2023-03-20T20:47:55.589Z,68.20
2023-03-20T20:52:55.357Z,66.33
2023-03-20T20:57:55.538Z,65.65
2023-03-20T21:02:58.472Z,67.72
2023-03-20T21:07:55.315Z,67.96
2023-03-20T21:12:59.408Z,67.32
2023-03-20T21:18:01.216Z,66.77
2023-03-20T21:22:56.029Z,67.62
2023-03-20T21:27:55.155Z,66.50
2023-03-20T21:32:55.100Z,66.74
2023-03-20T21:42:55.740Z,66.53
2023-03-20T21:58:53.472Z,65.92
2023-03-20T22:03:08.482Z,64.66
2023-03-20T22:28:41.530Z,65.71
2023-03-20T22:47:54.875Z,66.49
2023-03-20T22:52:53.913Z,65.77
2023-03-20T22:58:06.457Z,67.61
2023-03-20T23:03:13.805Z,66.39
2023-03-20T23:07:54.717Z,68.19
2023-03-20T23:13:00.744Z,67.71
2023-03-20T23:20:33.978Z,68.53
2023-03-20T23:25:43.232Z,67.71
2023-03-20T23:30:44.276Z,67.24
2023-03-20T23:35:34.939Z,67.24
2023-03-20T23:40:33.833Z,67.21
2023-03-20T23:45:33.706Z,65.88
2023-03-20T23:50:49.718Z,65.98
2023-03-20T23:55:35.774Z,67.13
